Time;durP1;ratioP1;P1;durP2;ratioP2;P2;SDS_P1;SDS_P2;PMS_P1;PMS_P2;Temp;Humidity;BMP_temperature;BMP_pressure;BME280_temperature;BME280_humidity;BME280_pressure;Samples;Min_cycle;Max_cycle;Signal;HPM_P1;HPM_P2
2021/04/10 00:00:55;;;;;;;16.17;6.60;;;5.90;87.20;;;;;;5008052;28;20041;-62
2021/04/10 00:03:20;;;;;;;18.07;6.47;;;5.90;87.30;;;;;;5009531;27;20042;-63
2021/04/10 00:05:46;;;;;;;17.93;5.87;;;5.90;87.40;;;;;;5008622;28;20144;-63
2021/04/10 00:08:12;;;;;;;17.43;6.47;;;5.90;87.30;;;;;;5009414;27;20086;-63
2021/04/10 00:10:37;;;;;;;19.67;5.53;;;5.90;87.30;;;;;;5009222;27;20068;-62
2021/04/10 00:13:03;;;;;;;15.63;5.77;;;5.90;87.40;;;;;;5008491;28;20038;-62
2021/04/10 00:15:29;;;;;;;16.07;6.30;;;5.90;87.40;;;;;;5008740;27;20046;-62
2021/04/10 00:17:56;;;;;;;19.63;7.27;;;5.90;87.50;;;;;;5009055;27;20034;-62
2021/04/10 00:20:23;;;;;;;20.07;6.07;;;5.90;87.50;;;;;;4991331;27;20042;-62
2021/04/10 00:22:49;;;;;;;18.50;6.50;;;5.90;87.50;;;;;;5009359;27;20466;-62
2021/04/10 00:25:15;;;;;;;20.33;5.97;;;5.90;87.50;;;;;;5008444;28;20510;-62
2021/04/10 00:27:41;;;;;;;16.80;6.47;;;5.90;87.50;;;;;;5008991;27;20056;-62
2021/04/10 00:30:10;;;;;;;16.67;6.00;;;5.90;87.50;;;;;;5009135;27;20038;-62
2021/04/10 00:32:35;;;;;;;14.37;5.57;;;5.90;87.60;;;;;;5009011;27;20122;-63
2021/04/10 00:35:01;;;;;;;18.17;5.27;;;5.90;87.60;;;;;;4991475;27;20045;-62
2021/04/10 00:37:27;;;;;;;18.23;5.60;;;5.80;87.60;;;;;;5007920;28;20061;-62
2021/04/10 00:39:53;;;;;;;19.07;5.30;;;5.80;87.60;;;;;;5008658;27;20042;-62
2021/04/10 00:42:18;;;;;;;16.80;5.37;;;5.90;87.80;;;;;;5008781;27;20038;-62
2021/04/10 00:44:44;;;;;;;16.87;5.10;;;5.80;87.70;;;;;;5009455;27;20112;-62
2021/04/10 00:47:09;;;;;;;12.93;4.90;;;5.80;87.80;;;;;;5008730;27;20041;-62
2021/04/10 00:49:35;;;;;;;15.23;4.90;;;5.80;87.80;;;;;;5009276;27;20026;-62
2021/04/10 00:52:02;;;;;;;17.50;5.43;;;5.80;87.80;;;;;;5008141;27;20550;-63
2021/04/10 00:54:28;;;;;;;14.77;5.63;;;5.90;87.80;;;;;;4991411;28;20067;-62
2021/04/10 00:56:54;;;;;;;19.57;6.60;;;5.80;87.70;;;;;;5007667;28;20465;-62
2021/04/10 00:59:20;;;;;;;20.20;6.63;;;5.80;87.80;;;;;;5007384;27;20038;-62
2021/04/10 01:01:46;;;;;;;16.27;4.90;;;5.80;87.80;;;;;;5007118;28;20404;-62
2021/04/10 01:04:13;;;;;;;16.23;5.53;;;5.80;87.60;;;;;;5007252;27;20032;-62
2021/04/10 01:06:39;;;;;;;16.23;5.07;;;5.70;87.70;;;;;;5007667;28;20038;-63
2021/04/10 01:09:05;;;;;;;16.77;5.63;;;5.70;87.90;;;;;;5008905;27;20029;-64
2021/04/10 01:11:43;;;;;;;15.47;5.30;;;5.70;88.00;;;;;;5006624;27;20038;-63
2021/04/10 01:14:40;;;;;;;18.03;5.53;;;5.70;88.00;;;;;;5008797;27;20038;-63
2021/04/10 01:17:16;;;;;;;16.03;5.50;;;5.80;88.20;;;;;;5026957;27;20033;-63
2021/04/10 01:19:55;;;;;;;16.23;5.17;;;5.80;88.10;;;;;;5027279;27;20116;-63
2021/04/10 01:22:42;;;;;;;16.97;5.27;;;5.70;87.90;;;;;;5026683;27;20044;-63
2021/04/10 01:25:14;;;;;;;15.50;5.63;;;5.80;87.90;;;;;;5026557;27;20069;-64
2021/04/10 01:27:54;;;;;;;17.20;5.53;;;5.80;87.80;;;;;;5027998;27;20469;-63
2021/04/10 01:30:21;;;;;;;19.87;6.20;;;5.70;87.70;;;;;;5009806;27;20120;-63
2021/04/10 01:33:11;;;;;;;16.93;5.90;;;5.70;87.80;;;;;;5009830;28;20284;-63
2021/04/10 01:35:47;;;;;;;14.53;5.60;;;5.70;87.90;;;;;;5030781;27;20030;-63
2021/04/10 01:38:17;;;;;;;17.37;6.10;;;5.70;87.80;;;;;;5028220;27;20065;-63
2021/04/10 01:40:44;;;;;;;16.77;6.00;;;5.60;87.80;;;;;;5025676;27;20071;-63
2021/04/10 01:43:11;;;;;;;15.80;6.10;;;5.60;87.90;;;;;;5028183;27;20040;-63
2021/04/10 01:45:40;;;;;;;15.27;6.33;;;5.60;88.00;;;;;;5027660;27;20120;-63
2021/04/10 01:48:10;;;;;;;16.57;6.50;;;5.60;88.10;;;;;;5028149;27;20538;-63
2021/04/10 01:50:39;;;;;;;20.40;6.80;;;5.60;88.20;;;;;;5025789;27;20102;-63
2021/04/10 01:53:07;;;;;;;17.83;6.63;;;5.60;88.10;;;;;;5026503;27;20065;-63
2021/04/10 01:55:34;;;;;;;17.30;6.73;;;5.60;88.20;;;;;;5010502;28;20129;-63
2021/04/10 01:58:01;;;;;;;17.40;6.67;;;5.60;88.30;;;;;;5026151;27;20063;-63
2021/04/10 02:00:32;;;;;;;17.30;7.20;;;5.60;88.30;;;;;;5026413;27;20094;-63
2021/04/10 02:03:02;;;;;;;18.83;6.80;;;5.60;88.40;;;;;;5025902;27;20501;-63
2021/04/10 02:05:28;;;;;;;21.10;7.07;;;5.60;88.30;;;;;;5027957;27;20524;-63
2021/04/10 02:08:09;;;;;;;20.13;7.27;;;5.60;88.30;;;;;;5027420;27;20082;-63
2021/04/10 02:10:37;;;;;;;16.40;7.10;;;5.60;88.30;;;;;;5026230;27;20061;-63
2021/04/10 02:13:13;;;;;;;19.27;7.43;;;5.50;88.30;;;;;;5010837;27;20033;-63
2021/04/10 02:15:44;;;;;;;17.07;7.40;;;5.50;88.50;;;;;;5026696;27;20059;-63
2021/04/10 02:18:13;;;;;;;20.10;7.33;;;5.50;88.50;;;;;;5025863;27;20034;-63
2021/04/10 02:20:39;;;;;;;18.53;7.77;;;5.50;88.60;;;;;;5027313;27;20477;-63
2021/04/10 02:23:05;;;;;;;23.80;7.93;;;5.50;88.60;;;;;;5010037;28;20476;-64
2021/04/10 02:25:37;;;;;;;17.37;7.07;;;5.50;88.70;;;;;;5027551;27;20052;-63
2021/04/10 02:28:05;;;;;;;18.93;7.63;;;5.50;88.70;;;;;;5026140;27;20053;-63
2021/04/10 02:30:31;;;;;;;18.83;7.60;;;5.50;88.60;;;;;;5025808;27;20085;-63
2021/04/10 02:33:16;;;;;;;15.60;7.43;;;5.50;88.70;;;;;;5026075;27;20041;-63
2021/04/10 02:35:50;;;;;;;19.57;7.50;;;5.50;88.70;;;;;;5025823;27;20034;-63
2021/04/10 02:38:21;;;;;;;17.87;7.93;;;5.40;88.70;;;;;;5026239;27;20409;-63
2021/04/10 02:40:58;;;;;;;20.00;7.37;;;5.40;88.70;;;;;;5028084;27;20117;-63
2021/04/10 02:43:29;;;;;;;20.93;7.67;;;5.50;88.90;;;;;;5029580;27;20042;-63
2021/04/10 02:46:00;;;;;;;22.73;8.03;;;5.40;88.90;;;;;;5029265;27;20166;-63
2021/04/10 02:48:37;;;;;;;22.80;8.13;;;5.40;88.90;;;;;;5029991;27;20446;-63
2021/04/10 02:51:06;;;;;;;16.70;7.70;;;5.40;89.10;;;;;;5028939;27;20183;-63
2021/04/10 02:53:36;;;;;;;23.43;8.33;;;5.40;89.30;;;;;;5029796;27;20051;-63
2021/04/10 02:56:03;;;;;;;19.80;8.67;;;5.40;89.30;;;;;;5030894;27;20034;-63
2021/04/10 02:58:31;;;;;;;18.13;7.53;;;5.40;89.30;;;;;;5029794;27;20033;-63
2021/04/10 03:00:59;;;;;;;23.83;8.93;;;5.40;89.20;;;;;;5028760;27;20405;-63
2021/04/10 03:03:32;;;;;;;19.07;8.07;;;5.40;89.20;;;;;;5013781;28;20030;-63
2021/04/10 03:06:00;;;;;;;21.50;7.83;;;5.40;89.10;;;;;;5029489;27;20121;-63
2021/04/10 03:08:26;;;;;;;18.43;7.63;;;5.40;89.10;;;;;;5029034;27;20581;-63
2021/04/10 03:10:57;;;;;;;22.67;7.50;;;5.40;89.20;;;;;;5012901;28;20094;-63
2021/04/10 03:13:24;;;;;;;18.50;7.80;;;5.30;89.30;;;;;;5012234;27;20044;-62
2021/04/10 03:15:57;;;;;;;21.33;7.87;;;5.40;89.50;;;;;;5029288;27;20034;-62
2021/04/10 03:18:25;;;;;;;20.60;7.77;;;5.40;89.60;;;;;;5028742;27;20098;-62
2021/04/10 03:20:56;;;;;;;19.37;8.57;;;5.40;89.50;;;;;;5028502;27;20030;-62
2021/04/10 03:23:22;;;;;;;18.67;7.70;;;5.40;89.50;;;;;;5028797;27;20405;-62
2021/04/10 03:25:48;;;;;;;19.07;7.00;;;5.40;89.40;;;;;;5029142;27;20034;-62
2021/04/10 03:28:14;;;;;;;20.27;6.63;;;5.30;89.40;;;;;;5012568;28;20063;-62
2021/04/10 03:30:43;;;;;;;20.73;6.80;;;5.30;89.30;;;;;;5027862;27;20033;-62
2021/04/10 03:33:16;;;;;;;14.20;5.63;;;5.30;89.30;;;;;;5028966;27;20045;-62
2021/04/10 03:35:42;;;;;;;18.50;6.20;;;5.30;89.20;;;;;;5029087;27;20501;-62
2021/04/10 03:38:09;;;;;;;16.17;5.47;;;5.30;89.20;;;;;;5028617;27;20037;-63
2021/04/10 03:40:38;;;;;;;16.90;5.30;;;5.30;89.20;;;;;;5029486;27;20065;-62
2021/04/10 03:43:03;;;;;;;17.97;4.93;;;5.30;89.20;;;;;;5028332;27;20084;-62
2021/04/10 03:45:37;;;;;;;15.40;5.30;;;5.20;89.00;;;;;;5028834;27;20052;-62
2021/04/10 03:48:10;;;;;;;22.33;5.93;;;5.20;89.10;;;;;;5012511;27;20037;-63
2021/04/10 03:50:45;;;;;;;16.53;5.00;;;5.20;89.10;;;;;;5013069;28;20089;-62
2021/04/10 03:53:11;;;;;;;16.77;4.30;;;5.20;89.20;;;;;;5028064;27;20041;-63
2021/04/10 03:55:36;;;;;;;16.73;4.53;;;5.20;89.10;;;;;;5028734;27;20034;-62
2021/04/10 03:58:04;;;;;;;14.07;4.10;;;5.10;89.10;;;;;;5028397;27;20494;-63
2021/04/10 04:00:32;;;;;;;16.40;3.80;;;5.10;89.10;;;;;;5027986;27;20030;-63
2021/04/10 04:03:02;;;;;;;14.95;3.78;;;5.10;89.10;;;;;;5028561;27;20038;-63
2021/04/10 04:05:28;;;;;;;14.87;3.60;;;5.10;89.10;;;;;;5027988;27;20045;-63
2021/04/10 04:07:54;;;;;;;16.33;3.60;;;5.10;89.10;;;;;;5029537;27;20034;-62
2021/04/10 04:10:20;;;;;;;13.33;3.80;;;5.10;89.10;;;;;;5028972;27;20118;-63
2021/04/10 04:12:45;;;;;;;17.83;3.63;;;5.10;89.10;;;;;;5027944;27;20061;-63
2021/04/10 04:15:11;;;;;;;17.10;3.60;;;5.10;89.10;;;;;;5029635;27;20134;-63
2021/04/10 04:17:37;;;;;;;10.93;2.93;;;5.10;89.10;;;;;;5029060;27;20048;-62
2021/04/10 04:20:04;;;;;;;16.77;4.13;;;5.10;89.10;;;;;;5027891;27;20033;-63
2021/04/10 04:22:30;;;;;;;12.07;3.57;;;5.10;89.00;;;;;;5029140;27;20056;-62
2021/04/10 04:24:56;;;;;;;13.53;3.30;;;5.10;89.00;;;;;;5029118;27;20057;-62
2021/04/10 04:27:21;;;;;;;15.30;3.20;;;5.10;88.90;;;;;;5028043;27;20034;-63
2021/04/10 04:29:47;;;;;;;16.53;3.60;;;5.10;88.70;;;;;;5027770;27;20065;-63
2021/04/10 04:32:13;;;;;;;11.17;3.10;;;5.00;88.50;;;;;;5028721;27;20048;-63
2021/04/10 04:34:38;;;;;;;12.73;3.37;;;5.00;88.40;;;;;;5029354;27;20033;-63
2021/04/10 04:37:04;;;;;;;12.70;2.73;;;5.00;88.50;;;;;;5028854;27;20112;-63
2021/04/10 04:39:31;;;;;;;12.60;3.23;;;4.90;88.40;;;;;;5029321;27;20029;-63
2021/04/10 04:41:59;;;;;;;11.77;3.33;;;4.90;88.30;;;;;;5027974;27;20036;-64
2021/04/10 04:44:25;;;;;;;14.80;2.67;;;4.90;88.40;;;;;;5029320;27;20120;-63
2021/04/10 04:46:50;;;;;;;10.03;2.70;;;4.90;88.50;;;;;;5028000;27;20106;-63
2021/04/10 04:49:16;;;;;;;12.70;2.93;;;4.90;88.60;;;;;;5028711;27;20041;-63
2021/04/10 04:51:42;;;;;;;12.40;2.67;;;4.90;88.60;;;;;;5010722;28;20029;-63
2021/04/10 04:54:07;;;;;;;17.97;3.03;;;4.90;88.80;;;;;;5028331;27;20048;-63
2021/04/10 04:56:33;;;;;;;13.23;2.93;;;4.90;88.60;;;;;;5028892;27;20125;-63
2021/04/10 04:58:58;;;;;;;11.87;2.40;;;5.00;88.80;;;;;;5027797;27;20036;-63
2021/04/10 05:01:24;;;;;;;17.90;3.17;;;5.00;88.80;;;;;;5026437;27;20378;-63
2021/04/10 05:03:50;;;;;;;14.90;3.23;;;5.00;88.70;;;;;;5028436;27;20542;-64
2021/04/10 05:06:15;;;;;;;13.63;3.27;;;5.00;88.70;;;;;;5029018;27;20042;-63
2021/04/10 05:08:41;;;;;;;13.87;3.20;;;5.00;88.60;;;;;;5028325;27;20033;-63
2021/04/10 05:11:07;;;;;;;13.23;3.97;;;5.00;88.60;;;;;;5028199;27;20059;-62
2021/04/10 05:13:33;;;;;;;14.33;3.47;;;5.00;88.70;;;;;;5010692;27;20044;-62
2021/04/10 05:15:58;;;;;;;12.23;3.10;;;5.00;88.70;;;;;;5028746;27;20038;-62
2021/04/10 05:18:24;;;;;;;14.10;2.67;;;5.00;88.70;;;;;;5028705;27;20441;-62
2021/04/10 05:20:50;;;;;;;13.23;2.87;;;5.00;88.70;;;;;;5027470;27;20489;-63
2021/04/10 05:23:23;;;;;;;12.60;3.23;;;5.10;88.70;;;;;;5027549;27;20047;-62
2021/04/10 05:25:50;;;;;;;9.50;2.70;;;5.10;88.60;;;;;;5026817;27;20156;-62
2021/04/10 05:28:16;;;;;;;14.27;3.33;;;5.10;88.30;;;;;;5026941;27;20501;-62
2021/04/10 05:30:42;;;;;;;15.23;4.03;;;5.10;88.70;;;;;;5026337;27;20413;-63
2021/04/10 05:33:09;;;;;;;15.33;3.37;;;5.20;89.00;;;;;;5027823;27;20033;-63
2021/04/10 05:35:35;;;;;;;12.87;3.20;;;5.30;89.20;;;;;;5028460;27;20045;-63
2021/04/10 05:38:01;;;;;;;13.70;3.00;;;5.40;89.20;;;;;;5028260;27;20033;-63
2021/04/10 05:40:27;;;;;;;11.80;2.70;;;5.40;89.20;;;;;;5027498;27;20041;-63
2021/04/10 05:42:52;;;;;;;12.60;2.80;;;5.50;89.00;;;;;;5010306;28;20033;-63
2021/04/10 05:45:18;;;;;;;12.20;2.57;;;5.60;88.80;;;;;;5027792;27;20041;-63
2021/04/10 05:47:44;;;;;;;10.33;2.43;;;5.70;88.70;;;;;;5028057;27;20113;-63
2021/04/10 05:50:10;;;;;;;9.37;2.23;;;5.70;88.40;;;;;;5027785;27;20103;-63
2021/04/10 05:52:36;;;;;;;10.80;2.53;;;5.70;88.20;;;;;;5025984;27;20042;-62
2021/04/10 05:55:03;;;;;;;9.90;2.00;;;5.80;88.00;;;;;;5028105;27;20106;-63
2021/04/10 05:57:29;;;;;;;10.50;2.53;;;5.70;87.80;;;;;;5026502;27;20038;-63
2021/04/10 05:59:54;;;;;;;9.60;3.27;;;5.70;87.70;;;;;;5027792;27;20093;-62
2021/04/10 06:02:20;;;;;;;17.53;2.87;;;5.70;87.70;;;;;;5027593;27;20091;-64
2021/04/10 06:04:45;;;;;;;12.80;2.70;;;5.80;87.60;;;;;;5027620;27;20049;-62
2021/04/10 06:07:11;;;;;;;13.37;2.50;;;5.80;87.50;;;;;;5026740;27;20036;-63
2021/04/10 06:09:37;;;;;;;12.27;2.43;;;5.80;87.50;;;;;;5027986;27;20553;-62
2021/04/10 06:12:03;;;;;;;16.77;2.70;;;5.80;87.50;;;;;;5009293;28;20044;-63
2021/04/10 06:14:29;;;;;;;14.03;2.60;;;5.80;87.50;;;;;;5028776;27;20089;-63
2021/04/10 06:16:54;;;;;;;14.53;2.80;;;5.90;87.80;;;;;;5029811;27;20041;-63
2021/04/10 06:19:20;;;;;;;15.00;2.53;;;6.00;88.10;;;;;;5030016;27;20045;-63
2021/04/10 06:21:47;;;;;;;15.13;2.90;;;6.10;88.10;;;;;;5029516;27;20050;-62
2021/04/10 06:24:13;;;;;;;13.57;2.60;;;6.30;88.00;;;;;;5031987;27;20049;-62
2021/04/10 06:26:41;;;;;;;13.37;2.60;;;6.30;87.50;;;;;;5031415;27;20038;-62
2021/04/10 06:29:07;;;;;;;13.23;2.30;;;6.40;87.10;;;;;;5030877;27;20413;-62
2021/04/10 06:31:33;;;;;;;15.03;3.50;;;6.40;87.10;;;;;;5030354;27;20381;-62
2021/04/10 06:33:58;;;;;;;10.10;2.10;;;6.50;87.10;;;;;;5031044;27;20044;-63
2021/04/10 06:36:25;;;;;;;12.67;2.10;;;6.50;86.70;;;;;;5029602;27;20033;-62
2021/04/10 06:38:50;;;;;;;12.93;2.10;;;6.60;86.50;;;;;;5029628;27;20489;-62
2021/04/10 06:41:16;;;;;;;11.03;2.17;;;6.60;86.20;;;;;;5029766;27;20071;-62
2021/04/10 06:43:43;;;;;;;10.33;2.00;;;6.70;85.90;;;;;;5030900;27;20094;-62
2021/04/10 06:46:10;;;;;;;9.67;2.10;;;6.80;85.80;;;;;;5031152;27;20045;-62
2021/04/10 06:48:39;;;;;;;10.17;2.00;;;6.80;85.70;;;;;;5030645;27;20033;-62
2021/04/10 06:51:06;;;;;;;12.47;2.13;;;7.00;85.70;;;;;;5030660;27;20050;-64
2021/04/10 06:53:45;;;;;;;11.97;2.47;;;7.00;85.20;;;;;;5031154;27;20041;-65
2021/04/10 06:56:16;;;;;;;10.30;2.20;;;7.20;84.70;;;;;;5030783;27;20040;-62
2021/04/10 06:58:58;;;;;;;8.43;1.80;;;7.20;84.80;;;;;;5031740;27;20041;-62
2021/04/10 07:01:25;;;;;;;10.67;2.23;;;7.30;84.00;;;;;;5029838;27;20060;-62
2021/04/10 07:03:51;;;;;;;11.03;2.03;;;7.40;84.40;;;;;;5030564;27;20044;-65
2021/04/10 07:06:18;;;;;;;10.10;2.40;;;7.70;84.70;;;;;;5030164;27;20120;-65
2021/04/10 07:08:44;;;;;;;12.10;2.00;;;7.90;83.70;;;;;;5030783;27;20042;-66
2021/04/10 07:11:11;;;;;;;9.10;1.83;;;8.00;83.10;;;;;;5028976;27;20053;-62
2021/04/10 07:13:37;;;;;;;9.50;2.10;;;8.10;82.20;;;;;;5030056;27;20052;-62
2021/04/10 07:16:03;;;;;;;10.77;1.80;;;8.20;80.50;;;;;;5029209;27;20460;-63
2021/04/10 07:18:30;;;;;;;10.50;1.77;;;8.20;80.30;;;;;;5030529;27;20079;-62
2021/04/10 07:21:31;;;;;;;12.67;1.87;;;8.20;79.50;;;;;;5029706;27;20037;-62
2021/04/10 07:23:57;;;;;;;;;;;8.30;78.60;;;;;;5091454;28;20093;-62
2021/04/10 07:26:45;;;;;;;8.63;1.90;;;8.30;78.50;;;;;;5041144;27;20339;-63
2021/04/10 07:29:45;;;;;;;11.97;1.80;;;8.40;78.80;;;;;;5030106;27;20048;-63
2021/04/10 07:32:34;;;;;;;9.13;1.80;;;8.60;77.50;;;;;;5028160;27;20033;-63
2021/04/10 07:35:04;;;;;;;12.30;1.87;;;8.70;77.40;;;;;;5029696;27;20510;-63
2021/04/10 07:37:40;;;;;;;10.20;1.80;;;8.90;76.80;;;;;;5030304;27;20039;-64
2021/04/10 07:40:08;;;;;;;10.02;1.65;;;9.20;77.10;;;;;;5029368;27;20390;-63
2021/04/10 07:42:37;;;;;;;14.50;2.20;;;9.50;76.50;;;;;;5029982;27;20082;-63
2021/04/10 07:45:03;;;;;;;9.90;1.60;;;9.70;75.20;;;;;;5030182;27;20060;-64
2021/04/10 07:47:39;;;;;;;8.45;1.52;;;9.80;73.70;;;;;;5029747;27;20112;-63
2021/04/10 07:50:26;;;;;;;13.40;1.70;;;9.90;72.90;;;;;;5036176;27;20454;-63
2021/04/10 07:52:52;;;;;;;11.27;2.05;;;10.00;71.90;;;;;;5017228;27;20041;-63
2021/04/10 07:55:34;;;;;;;11.88;1.92;;;10.10;71.60;;;;;;5029841;27;20105;-63
2021/04/10 07:58:25;;;;;;;10.80;1.77;;;10.30;71.50;;;;;;5028545;27;20075;-63
2021/04/10 08:00:57;;;;;;;8.20;1.70;;;10.50;70.60;;;;;;5027381;27;20068;-63
2021/04/10 08:03:31;;;;;;;11.30;1.92;;;10.70;70.10;;;;;;5011381;28;20037;-63
2021/04/10 08:06:17;;;;;;;10.10;2.30;;;10.90;68.80;;;;;;5029341;27;20560;-63
2021/04/10 08:08:57;;;;;;;9.77;1.80;;;11.10;68.20;;;;;;5033052;27;20030;-63
2021/04/10 08:11:43;;;;;;;9.35;1.92;;;11.40;67.60;;;;;;5007257;28;20026;-63
2021/04/10 08:14:14;;;;;;;9.43;1.70;;;11.60;66.30;;;;;;5034617;27;20041;-63
2021/04/10 08:16:40;;;;;;;8.82;1.63;;;11.90;66.50;;;;;;5030519;28;20037;-63
2021/04/10 08:19:06;;;;;;;8.57;1.83;;;12.40;66.00;;;;;;5029404;28;20064;-63
2021/04/10 08:21:32;;;;;;;12.23;1.90;;;13.00;65.70;;;;;;5029433;28;20046;-63
2021/04/10 08:24:03;;;;;;;8.50;1.63;;;13.60;63.80;;;;;;5044648;27;20053;-63
2021/04/10 08:26:29;;;;;;;8.55;1.63;;;14.20;61.70;;;;;;5047258;27;20033;-62
2021/04/10 08:28:56;;;;;;;8.73;1.85;;;14.60;60.40;;;;;;5046794;27;20089;-63
2021/04/10 08:31:22;;;;;;;7.88;1.48;;;15.10;59.90;;;;;;5046396;27;20129;-63
2021/04/10 08:33:47;;;;;;;11.27;2.08;;;15.90;60.20;;;;;;5047774;27;20041;-63
2021/04/10 08:36:17;;;;;;;10.57;1.83;;;16.50;56.70;;;;;;5047635;27;20068;-63
2021/04/10 08:38:43;;;;;;;11.05;1.67;;;16.60;55.60;;;;;;5047758;27;20420;-63
2021/04/10 08:41:12;;;;;;;6.95;1.42;;;17.10;55.50;;;;;;5046996;27;20033;-64
2021/04/10 08:43:44;;;;;;;6.75;1.50;;;17.80;53.20;;;;;;5048657;27;20320;-64
2021/04/10 08:46:10;;;;;;;6.40;1.40;;;18.10;50.70;;;;;;5037152;27;20037;-64
2021/04/10 08:48:37;;;;;;;8.25;1.33;;;18.10;50.00;;;;;;5032524;22;20413;-70
2021/04/10 08:51:06;;;;;;;7.85;1.42;;;18.30;49.60;;;;;;5018929;28;20047;-69
2021/04/10 08:53:34;;;;;;;9.40;1.67;;;19.00;50.00;;;;;;5004096;28;20130;-69
2021/04/10 08:56:18;;;;;;;8.48;1.98;;;20.20;49.20;;;;;;4969457;28;20509;-69
2021/04/10 08:58:44;;;;;;;5.82;1.30;;;21.00;46.70;;;;;;4969553;28;20050;-69
2021/04/10 09:01:16;;;;;;;7.57;1.50;;;22.10;46.20;;;;;;4961176;28;20043;-71
2021/04/10 09:03:49;;;;;;;7.60;1.52;;;23.10;43.30;;;;;;4944119;28;20035;-69
2021/04/10 09:06:37;;;;;;;6.95;1.58;;;22.60;40.50;;;;;;4975924;28;20039;-72
2021/04/10 09:09:15;;;;;;;7.30;1.50;;;22.80;41.00;;;;;;4967754;28;20431;-71
2021/04/10 09:11:45;;;;;;;6.82;1.42;;;23.50;40.30;;;;;;4967265;28;20035;-71
2021/04/10 09:14:34;;;;;;;7.18;1.60;;;23.80;38.40;;;;;;4969855;28;20049;-71
2021/04/10 09:17:00;;;;;;;8.30;1.52;;;24.00;37.40;;;;;;4969124;28;20046;-70
2021/04/10 09:19:27;;;;;;;9.65;1.90;;;23.20;34.90;;;;;;4969642;28;20035;-71
2021/04/10 09:21:55;;;;;;;6.05;1.40;;;22.30;34.90;;;;;;4968476;28;20069;-70
2021/04/10 09:24:42;;;;;;;10.25;1.42;;;21.70;35.10;;;;;;4968388;28;20051;-70
2021/04/10 09:27:19;;;;;;;10.05;1.65;;;22.50;36.10;;;;;;4969072;28;20118;-71
2021/04/10 09:30:07;;;;;;;6.50;1.50;;;23.00;34.20;;;;;;4969184;28;20547;-71
2021/04/10 09:32:33;;;;;;;7.43;1.85;;;22.60;32.60;;;;;;4968988;28;20406;-71
2021/04/10 09:35:06;;;;;;;6.80;1.42;;;22.10;32.70;;;;;;4969557;28;20043;-62
2021/04/10 09:37:32;;;;;;;7.03;1.70;;;21.90;32.80;;;;;;4969015;28;20058;-63
2021/04/10 09:40:03;;;;;;;8.43;1.60;;;22.40;33.70;;;;;;4967751;28;20070;-63
2021/04/10 09:45:27;;;;;;;10.18;1.60;;;23.40;31.70;;;;;;4969521;28;20509;-62
2021/04/10 09:48:02;;;;;;;8.45;1.65;;;23.30;31.10;;;;;;4967009;28;20035;-62
2021/04/10 09:50:39;;;;;;;8.02;1.60;;;23.10;30.30;;;;;;4968930;28;20088;-62
2021/04/10 09:53:19;;;;;;;7.93;1.42;;;22.70;29.30;;;;;;4968963;28;20095;-62
2021/04/10 09:55:46;;;;;;;;;;;22.20;30.20;;;;;;4969615;28;20045;-62
2021/04/10 09:58:19;;;;;;;8.85;1.70;;;22.40;31.00;;;;;;4968705;28;20381;-62
2021/04/10 10:00:47;;;;;;;6.95;1.50;;;22.40;29.70;;;;;;4966380;28;20047;-60
2021/04/10 10:03:21;;;;;;;6.93;1.33;;;22.00;29.20;;;;;;4985461;28;20134;-62
2021/04/10 10:05:50;;;;;;;10.23;1.70;;;21.60;29.10;;;;;;4949271;28;20038;-62
2021/04/10 10:08:18;;;;;;;8.90;1.75;;;21.20;29.00;;;;;;4949230;28;20499;-62
2021/04/10 10:10:51;;;;;;;8.20;1.50;;;21.60;30.10;;;;;;4961902;28;20043;-63
2021/04/10 10:13:18;;;;;;;6.28;1.30;;;22.50;30.20;;;;;;4943635;28;20043;-62
2021/04/10 10:15:46;;;;;;;7.82;1.63;;;23.20;29.70;;;;;;4952108;28;20050;-62
2021/04/10 10:18:33;;;;;;;8.75;1.70;;;23.20;28.70;;;;;;4949366;28;20031;-62
2021/04/10 10:21:13;;;;;;;7.32;1.50;;;22.80;28.10;;;;;;4947588;28;20070;-62
2021/04/10 10:23:48;;;;;;;9.00;1.75;;;22.60;28.50;;;;;;4967096;28;20273;-62
2021/04/10 10:26:17;;;;;;;5.72;1.17;;;22.80;28.00;;;;;;5030308;28;20036;-63
2021/04/10 10:28:51;;;;;;;8.65;1.60;;;23.00;28.10;;;;;;5030427;28;20480;-62
2021/04/10 10:31:20;;;;;;;6.38;1.40;;;22.90;28.20;;;;;;5028208;28;20033;-63
2021/04/10 10:33:47;;;;;;;6.57;1.35;;;22.10;27.10;;;;;;5030268;28;20131;-63
2021/04/10 10:36:15;;;;;;;11.52;2.15;;;21.40;27.90;;;;;;5029797;28;20520;-64
2021/04/10 10:38:46;;;;;;;8.05;1.58;;;21.30;28.80;;;;;;5030223;28;20565;-64
2021/04/10 10:41:14;;;;;;;7.07;1.58;;;21.70;29.10;;;;;;4977103;28;20435;-65
2021/04/10 10:43:41;;;;;;;6.97;1.60;;;23.20;29.20;;;;;;4942921;28;20492;-64
2021/04/10 10:46:10;;;;;;;6.68;1.42;;;24.20;28.30;;;;;;4941765;28;20456;-65
2021/04/10 10:48:38;;;;;;;6.63;1.63;;;24.80;28.40;;;;;;4938607;28;20048;-64
2021/04/10 10:51:10;;;;;;;7.90;1.40;;;25.70;28.00;;;;;;4997790;28;20037;-64
2021/04/10 10:53:44;;;;;;;6.78;1.45;;;25.90;26.10;;;;;;4945330;28;20043;-64
2021/04/10 10:56:27;;;;;;;6.30;1.40;;;25.00;24.80;;;;;;4983071;28;20052;-61
2021/04/10 10:58:59;;;;;;;7.32;1.65;;;24.10;25.70;;;;;;4984583;28;20552;-62
2021/04/10 11:01:32;;;;;;;6.63;1.30;;;24.10;26.40;;;;;;4984805;28;20047;-62
2021/04/10 11:04:05;;;;;;;8.55;1.50;;;24.30;26.50;;;;;;4964698;28;20050;-62
2021/04/10 11:06:34;;;;;;;4.60;1.20;;;24.70;25.60;;;;;;4953200;28;20040;-62
2021/04/10 11:09:05;;;;;;;7.60;1.80;;;24.80;25.20;;;;;;4957133;28;20593;-62
2021/04/10 11:11:35;;;;;;;3.90;1.20;;;25.10;25.50;;;;;;4944187;28;20042;-62
2021/04/10 11:14:01;;;;;;;6.72;1.55;;;25.60;25.60;;;;;;5001175;28;20049;-63
2021/04/10 11:16:27;;;;;;;5.80;1.48;;;25.80;25.10;;;;;;4951861;28;20031;-62
2021/04/10 11:18:57;;;;;;;7.07;1.50;;;26.50;25.40;;;;;;4967857;28;20045;-62
2021/04/10 11:21:24;;;;;;;6.47;1.40;;;27.30;25.40;;;;;;4967543;28;20062;-62
2021/04/10 11:23:56;;;;;;;7.07;1.33;;;27.90;24.60;;;;;;4961622;28;20038;-62
2021/04/10 11:26:33;;;;;;;5.63;1.42;;;28.40;23.70;;;;;;4957617;28;20180;-62
2021/04/10 11:29:23;;;;;;;6.88;1.63;;;28.90;23.80;;;;;;4971341;28;20092;-62
2021/04/10 11:32:03;;;;;;;5.43;1.33;;;29.40;23.80;;;;;;4969843;28;20042;-62
2021/04/10 11:34:45;;;;;;;6.55;1.20;;;29.40;23.60;;;;;;4970292;28;20394;-62
2021/04/10 11:37:12;;;;;;;9.65;1.55;;;29.50;23.40;;;;;;4970975;28;20069;-62
2021/04/10 11:39:55;;;;;;;6.50;1.30;;;29.60;23.00;;;;;;4970938;28;20104;-62
2021/04/10 11:42:29;;;;;;;8.05;1.50;;;29.80;22.70;;;;;;4970063;28;20047;-62
2021/04/10 11:44:57;;;;;;;7.10;1.50;;;30.10;22.40;;;;;;4955187;28;20039;-62
2021/04/10 11:47:26;;;;;;;5.40;1.20;;;30.60;22.30;;;;;;4985738;28;20037;-72
2021/04/10 11:49:53;;;;;;;6.50;1.27;;;31.00;22.00;;;;;;4994096;28;20071;-71
2021/04/10 11:52:24;;;;;;;5.53;1.42;;;31.40;21.80;;;;;;4990216;28;20039;-72
2021/04/10 11:55:01;;;;;;;8.10;1.50;;;31.50;21.50;;;;;;5032023;28;20075;-71
2021/04/10 11:57:31;;;;;;;6.85;1.45;;;31.60;21.20;;;;;;5032654;28;20037;-71
2021/04/10 12:00:10;;;;;;;4.85;1.20;;;31.50;21.10;;;;;;5032411;28;20082;-72
2021/04/10 12:02:47;;;;;;;6.85;1.27;;;31.20;20.50;;;;;;5032033;28;20090;-71
2021/04/10 12:05:19;;;;;;;6.68;1.30;;;30.20;20.20;;;;;;5032236;28;20584;-69
2021/04/10 12:08:24;;;;;;;6.07;1.20;;;29.40;20.20;;;;;;5031089;28;20068;-72
2021/04/10 12:11:00;;;;;;;6.25;1.30;;;29.00;20.20;;;;;;5031175;28;20503;-72
2021/04/10 12:13:28;;;;;;;5.22;1.48;;;28.50;19.90;;;;;;5023704;28;20044;-71
2021/04/10 12:15:56;;;;;;;5.80;1.40;;;27.00;19.50;;;;;;4933753;28;20032;-70
2021/04/10 12:18:24;;;;;;;6.72;1.63;;;25.00;19.60;;;;;;4951230;28;20043;-70
2021/04/10 12:20:52;;;;;;;4.70;1.88;;;23.80;20.90;;;;;;4951451;28;20373;-70
2021/04/10 12:23:18;;;;;;;4.75;1.20;;;23.60;21.60;;;;;;4959855;28;20046;-70
2021/04/10 12:25:44;;;;;;;6.00;1.17;;;24.10;22.00;;;;;;4956432;28;20046;-70
2021/04/10 12:28:10;;;;;;;6.13;1.67;;;24.90;21.90;;;;;;4965236;28;20057;-71
2021/04/10 12:30:37;;;;;;;4.43;1.15;;;25.50;21.70;;;;;;4953508;28;20042;-71
2021/04/10 12:33:02;;;;;;;4.68;1.58;;;25.80;21.20;;;;;;4962989;28;20074;-71
2021/04/10 12:35:28;;;;;;;6.93;1.70;;;25.70;21.20;;;;;;4956835;28;20133;-70
2021/04/10 12:37:54;;;;;;;7.68;1.25;;;25.70;21.20;;;;;;4969642;28;20031;-69
2021/04/10 12:40:21;;;;;;;7.63;1.63;;;25.70;21.10;;;;;;4968595;28;20454;-70
2021/04/10 12:42:47;;;;;;;9.25;1.45;;;25.60;20.60;;;;;;4969674;28;20507;-70
2021/04/10 12:45:13;;;;;;;6.40;1.30;;;25.60;20.80;;;;;;4969415;28;20050;-69
2021/04/10 12:47:39;;;;;;;5.40;1.13;;;25.70;20.30;;;;;;4952559;28;20034;-70
2021/04/10 12:50:07;;;;;;;5.35;1.00;;;25.50;20.70;;;;;;4963647;28;20059;-70
2021/04/10 12:52:34;;;;;;;7.07;1.60;;;25.30;20.90;;;;;;4968011;28;20058;-71
2021/04/10 12:55:00;;;;;;;6.85;1.40;;;25.00;21.10;;;;;;4969951;28;20038;-71
2021/04/10 12:57:26;;;;;;;7.97;1.80;;;24.70;21.10;;;;;;4968456;28;20188;-70
2021/04/10 12:59:52;;;;;;;7.18;1.83;;;24.40;21.20;;;;;;4968723;28;20543;-70
2021/04/10 13:02:18;;;;;;;5.07;1.60;;;24.30;21.30;;;;;;4969131;28;20041;-71
2021/04/10 13:04:44;;;;;;;5.32;1.50;;;24.30;21.60;;;;;;4969456;28;20042;-70